Accueil
METAR-TAF:

METAR-TAF

Aéroports :

Shawbury, Angleterre

latitude: 52-48N, longitude: 002-40W, altitude: 76 m

Observation

Le bulletin a été fait il y a 38 minutes, à 16:20 UTC
Vent 5 kt de nord
Température 11°C
Humidité 87%
Pression 1016 hPa
Visibilité 10 km ou plus
Nuages fragmentés à une hauteur de 1600 ft
Nuages fragmentés à une hauteur de 24000 ft

METAR: EGOS 301620Z 35005KT 9999 BKN016 BKN240 11/09 Q1016 TEMPO FEW016 RMK WHT TEMPO BLU

Heure: 16:58 (16:58 UTC)

Prévision

Le bulletin a été fait il y a 3 heures et 24 minutes, à 13:34 UTC
Prévision valable du 30 à 15 UTC au 30 à 19 UTC
Vent 5 kt de direction variable
Visibilité 10 km ou plus
Nuages épars à une hauteur de 3000 ft
Temporairement
du 30 à 15 UTC au 30 à 19 UTC
Nuages épars à une hauteur de 1800 ft

TAF: EGOS 301334Z 3015/3019 VRB05KT 9999 SCT030 TEMPO 3015/3019 SCT018

Observations et prévisions météorologiques de plus de 4000 aéroports (messages METAR et TAF).

Les stations disponibles sont représentées par des disques jaunes et rouges sur la carte.

Passer la souris dessus pour voir le nom de la station.

Cliquer dessus pour voir les observations et prévisions météorologiques.

Pour changer de carte: cliquez sur les boutons verts avec une croix noire pour zoomer, sur le bouton vert avec un tiret pour effectuer un zoom arrière, ou sur les flèches vertes pour les cartes adjacentes.


METAR-TAF: